sensor_id;sensor_type;location;lat;lon;timestamp;temperature;humidity
13713;DHT22;6928;50.546;7.120;2024-01-15T00:00:15;1.74;76.96
13713;DHT22;6928;50.546;7.120;2024-01-15T00:02:42;1.74;77.01
13713;DHT22;6928;50.546;7.120;2024-01-15T00:05:09;1.75;76.96
13713;DHT22;6928;50.546;7.120;2024-01-15T00:07:35;1.78;76.99
13713;DHT22;6928;50.546;7.120;2024-01-15T00:10:03;1.75;76.78
13713;DHT22;6928;50.546;7.120;2024-01-15T00:12:30;1.78;77.04
13713;DHT22;6928;50.546;7.120;2024-01-15T00:14:56;1.74;76.82
13713;DHT22;6928;50.546;7.120;2024-01-15T00:17:24;1.74;77.10
13713;DHT22;6928;50.546;7.120;2024-01-15T00:19:51;1.74;76.85
13713;DHT22;6928;50.546;7.120;2024-01-15T00:22:18;1.73;76.64
13713;DHT22;6928;50.546;7.120;2024-01-15T00:24:45;1.74;76.52
13713;DHT22;6928;50.546;7.120;2024-01-15T00:27:12;1.78;76.45
13713;DHT22;6928;50.546;7.120;2024-01-15T00:29:38;1.77;76.49
13713;DHT22;6928;50.546;7.120;2024-01-15T00:32:06;1.75;76.63
13713;DHT22;6928;50.546;7.120;2024-01-15T00:34:34;1.71;77.29
13713;DHT22;6928;50.546;7.120;2024-01-15T00:37:00;1.70;78.35
13713;DHT22;6928;50.546;7.120;2024-01-15T00:39:28;1.66;78.00
13713;DHT22;6928;50.546;7.120;2024-01-15T00:41:55;1.59;78.20
13713;DHT22;6928;50.546;7.120;2024-01-15T00:44:21;1.60;78.49
13713;DHT22;6928;50.546;7.120;2024-01-15T00:46:48;1.56;79.69
13713;DHT22;6928;50.546;7.120;2024-01-15T00:49:15;1.53;79.13
13713;DHT22;6928;50.546;7.120;2024-01-15T00:51:43;1.53;79.28
13713;DHT22;6928;50.546;7.120;2024-01-15T00:54:10;1.49;79.97
13713;DHT22;6928;50.546;7.120;2024-01-15T00:56:37;1.43;80.68
13713;DHT22;6928;50.546;7.120;2024-01-15T00:59:03;1.39;81.02
13713;DHT22;6928;50.546;7.120;2024-01-15T01:01:30;1.37;81.77
13713;DHT22;6928;50.546;7.120;2024-01-15T01:03:57;1.29;81.33
13713;DHT22;6928;50.546;7.120;2024-01-15T01:06:24;1.37;81.80
13713;DHT22;6928;50.546;7.120;2024-01-15T01:08:52;1.28;82.16
13713;DHT22;6928;50.546;7.120;2024-01-15T01:11:19;1.23;83.08
13713;DHT22;6928;50.546;7.120;2024-01-15T01:13:46;1.20;84.26
13713;DHT22;6928;50.546;7.120;2024-01-15T01:16:13;1.13;83.91
13713;DHT22;6928;50.546;7.120;2024-01-15T01:18:39;1.12;83.88
13713;DHT22;6928;50.546;7.120;2024-01-15T01:21:06;1.16;83.75
13713;DHT22;6928;50.546;7.120;2024-01-15T01:23:33;1.16;83.46
13713;DHT22;6928;50.546;7.120;2024-01-15T01:26:01;1.10;83.64
13713;DHT22;6928;50.546;7.120;2024-01-15T01:28:28;1.20;82.67
13713;DHT22;6928;50.546;7.120;2024-01-15T01:30:54;1.22;82.55
13713;DHT22;6928;50.546;7.120;2024-01-15T01:33:21;1.28;81.51
13713;DHT22;6928;50.546;7.120;2024-01-15T01:35:48;1.20;81.46
13713;DHT22;6928;50.546;7.120;2024-01-15T01:38:16;1.23;82.03
13713;DHT22;6928;50.546;7.120;2024-01-15T01:40:43;1.23;82.24
13713;DHT22;6928;50.546;7.120;2024-01-15T01:43:11;1.26;81.68
13713;DHT22;6928;50.546;7.120;2024-01-15T01:45:38;1.26;81.41
13713;DHT22;6928;50.546;7.120;2024-01-15T01:48:06;1.32;80.70
13713;DHT22;6928;50.546;7.120;2024-01-15T01:50:33;1.37;79.96
13713;DHT22;6928;50.546;7.120;2024-01-15T01:53:00;1.43;79.34
13713;DHT22;6928;50.546;7.120;2024-01-15T01:55:31;1.43;79.24
13713;DHT22;6928;50.546;7.120;2024-01-15T01:57:59;1.44;78.84
13713;DHT22;6928;50.546;7.120;2024-01-15T02:00:27;1.44;79.11
13713;DHT22;6928;50.546;7.120;2024-01-15T02:02:54;1.47;79.47
13713;DHT22;6928;50.546;7.120;2024-01-15T02:05:22;1.43;79.39
13713;DHT22;6928;50.546;7.120;2024-01-15T02:07:49;1.46;79.87
13713;DHT22;6928;50.546;7.120;2024-01-15T02:10:16;1.40;79.38
13713;DHT22;6928;50.546;7.120;2024-01-15T02:12:43;1.47;79.20
13713;DHT22;6928;50.546;7.120;2024-01-15T02:15:11;1.47;79.27
13713;DHT22;6928;50.546;7.120;2024-01-15T02:17:58;1.44;79.24
13713;DHT22;6928;50.546;7.120;2024-01-15T02:20:25;1.42;79.50
13713;DHT22;6928;50.546;7.120;2024-01-15T02:22:52;1.42;79.67
13713;DHT22;6928;50.546;7.120;2024-01-15T02:25:21;1.42;79.83
13713;DHT22;6928;50.546;7.120;2024-01-15T02:27:48;1.33;80.63
13713;DHT22;6928;50.546;7.120;2024-01-15T02:30:15;1.32;81.74
13713;DHT22;6928;50.546;7.120;2024-01-15T02:32:43;1.26;82.47
13713;DHT22;6928;50.546;7.120;2024-01-15T02:35:10;1.19;82.23
13713;DHT22;6928;50.546;7.120;2024-01-15T02:37:37;1.16;82.89
13713;DHT22;6928;50.546;7.120;2024-01-15T02:40:05;1.08;84.08
13713;DHT22;6928;50.546;7.120;2024-01-15T02:42:33;0.98;85.11
13713;DHT22;6928;50.546;7.120;2024-01-15T02:45:00;0.99;85.06
13713;DHT22;6928;50.546;7.120;2024-01-15T02:47:27;1.06;84.16
13713;DHT22;6928;50.546;7.120;2024-01-15T02:49:54;1.05;83.70
13713;DHT22;6928;50.546;7.120;2024-01-15T02:52:20;1.12;83.33
13713;DHT22;6928;50.546;7.120;2024-01-15T02:54:47;1.12;82.73
13713;DHT22;6928;50.546;7.120;2024-01-15T02:57:14;1.09;83.13
13713;DHT22;6928;50.546;7.120;2024-01-15T02:59:42;1.05;83.48
13713;DHT22;6928;50.546;7.120;2024-01-15T03:02:08;1.02;84.41
13713;DHT22;6928;50.546;7.120;2024-01-15T03:04:35;0.93;85.42
13713;DHT22;6928;50.546;7.120;2024-01-15T03:07:02;0.99;85.39
13713;DHT22;6928;50.546;7.120;2024-01-15T03:09:29;0.99;84.98
13713;DHT22;6928;50.546;7.120;2024-01-15T03:11:56;1.02;84.62
13713;DHT22;6928;50.546;7.120;2024-01-15T03:14:23;0.99;83.99
13713;DHT22;6928;50.546;7.120;2024-01-15T03:16:53;1.05;83.69
13713;DHT22;6928;50.546;7.120;2024-01-15T03:19:20;1.00;84.07
13713;DHT22;6928;50.546;7.120;2024-01-15T03:21:47;1.02;84.66
13713;DHT22;6928;50.546;7.120;2024-01-15T03:24:13;1.02;84.86
13713;DHT22;6928;50.546;7.120;2024-01-15T03:26:40;1.00;85.26
13713;DHT22;6928;50.546;7.120;2024-01-15T03:29:07;0.96;85.34
13713;DHT22;6928;50.546;7.120;2024-01-15T03:31:34;0.95;85.77
13713;DHT22;6928;50.546;7.120;2024-01-15T03:34:02;0.84;86.41
13713;DHT22;6928;50.546;7.120;2024-01-15T03:36:29;0.85;86.99
13713;DHT22;6928;50.546;7.120;2024-01-15T03:38:56;0.81;86.93
13713;DHT22;6928;50.546;7.120;2024-01-15T03:41:22;0.82;87.04
13713;DHT22;6928;50.546;7.120;2024-01-15T03:43:49;0.84;86.90
13713;DHT22;6928;50.546;7.120;2024-01-15T03:46:16;0.79;87.28
13713;DHT22;6928;50.546;7.120;2024-01-15T03:48:43;0.74;87.39
13713;DHT22;6928;50.546;7.120;2024-01-15T03:51:11;0.71;87.89
13713;DHT22;6928;50.546;7.120;2024-01-15T03:53:38;0.77;87.40
13713;DHT22;6928;50.546;7.120;2024-01-15T03:56:05;0.79;87.07
13713;DHT22;6928;50.546;7.120;2024-01-15T03:58:32;0.77;86.77
13713;DHT22;6928;50.546;7.120;2024-01-15T04:00:58;0.78;86.48
13713;DHT22;6928;50.546;7.120;2024-01-15T04:03:25;0.78;85.80
13713;DHT22;6928;50.546;7.120;2024-01-15T04:05:52;0.81;85.72
13713;DHT22;6928;50.546;7.120;2024-01-15T04:08:20;0.89;85.08
13713;DHT22;6928;50.546;7.120;2024-01-15T04:10:47;0.91;85.07
13713;DHT22;6928;50.546;7.120;2024-01-15T04:13:13;0.93;84.66
13713;DHT22;6928;50.546;7.120;2024-01-15T04:15:40;0.96;84.53
13713;DHT22;6928;50.546;7.120;2024-01-15T04:18:07;0.95;84.35
13713;DHT22;6928;50.546;7.120;2024-01-15T04:20:34;0.87;85.31
13713;DHT22;6928;50.546;7.120;2024-01-15T04:23:01;0.82;86.31
13713;DHT22;6928;50.546;7.120;2024-01-15T04:25:29;0.79;86.51
13713;DHT22;6928;50.546;7.120;2024-01-15T04:27:56;0.84;86.35
13713;DHT22;6928;50.546;7.120;2024-01-15T04:30:23;0.82;86.80
13713;DHT22;6928;50.546;7.120;2024-01-15T04:32:49;0.81;87.30
13713;DHT22;6928;50.546;7.120;2024-01-15T04:35:16;0.77;87.55
13713;DHT22;6928;50.546;7.120;2024-01-15T04:37:43;0.75;88.21
13713;DHT22;6928;50.546;7.120;2024-01-15T04:40:11;0.72;88.49
13713;DHT22;6928;50.546;7.120;2024-01-15T04:42:39;0.68;88.74
13713;DHT22;6928;50.546;7.120;2024-01-15T04:45:06;0.69;88.18
13713;DHT22;6928;50.546;7.120;2024-01-15T04:47:33;0.75;87.57
13713;DHT22;6928;50.546;7.120;2024-01-15T04:50:02;0.68;87.95
13713;DHT22;6928;50.546;7.120;2024-01-15T04:52:29;0.77;87.08
13713;DHT22;6928;50.546;7.120;2024-01-15T04:54:56;0.81;86.38
13713;DHT22;6928;50.546;7.120;2024-01-15T04:57:23;0.82;86.04
13713;DHT22;6928;50.546;7.120;2024-01-15T04:59:51;0.88;85.81
13713;DHT22;6928;50.546;7.120;2024-01-15T05:02:18;0.87;85.54
13713;DHT22;6928;50.546;7.120;2024-01-15T05:04:45;0.89;85.34
13713;DHT22;6928;50.546;7.120;2024-01-15T05:07:11;0.89;85.54
13713;DHT22;6928;50.546;7.120;2024-01-15T05:09:38;0.92;85.08
13713;DHT22;6928;50.546;7.120;2024-01-15T05:12:05;0.98;84.21
13713;DHT22;6928;50.546;7.120;2024-01-15T05:14:32;1.03;84.03
13713;DHT22;6928;50.546;7.120;2024-01-15T05:17:00;1.08;83.85
13713;DHT22;6928;50.546;7.120;2024-01-15T05:19:27;1.12;83.55
13713;DHT22;6928;50.546;7.120;2024-01-15T05:21:54;1.13;83.55
13713;DHT22;6928;50.546;7.120;2024-01-15T05:24:21;1.13;83.31
13713;DHT22;6928;50.546;7.120;2024-01-15T05:26:47;1.12;83.32
13713;DHT22;6928;50.546;7.120;2024-01-15T05:29:14;1.13;83.02
13713;DHT22;6928;50.546;7.120;2024-01-15T05:31:41;1.15;83.14
13713;DHT22;6928;50.546;7.120;2024-01-15T05:34:09;1.18;82.89
13713;DHT22;6928;50.546;7.120;2024-01-15T05:36:36;1.13;82.94
13713;DHT22;6928;50.546;7.120;2024-01-15T05:39:03;1.15;83.41
13713;DHT22;6928;50.546;7.120;2024-01-15T05:41:30;1.18;83.98
13713;DHT22;6928;50.546;7.120;2024-01-15T05:43:57;1.15;84.66
13713;DHT22;6928;50.546;7.120;2024-01-15T05:46:23;1.05;85.04
13713;DHT22;6928;50.546;7.120;2024-01-15T05:48:50;0.99;85.79
13713;DHT22;6928;50.546;7.120;2024-01-15T05:51:18;0.93;86.87
13713;DHT22;6928;50.546;7.120;2024-01-15T05:53:45;0.84;87.56
13713;DHT22;6928;50.546;7.120;2024-01-15T05:56:12;0.82;88.37
13713;DHT22;6928;50.546;7.120;2024-01-15T05:58:39;0.81;88.83
13713;DHT22;6928;50.546;7.120;2024-01-15T06:01:07;0.89;89.25
13713;DHT22;6928;50.546;7.120;2024-01-15T06:03:35;0.85;89.40
13713;DHT22;6928;50.546;7.120;2024-01-15T06:06:04;0.81;89.45
13713;DHT22;6928;50.546;7.120;2024-01-15T06:12:14;0.75;89.36
13713;DHT22;6928;50.546;7.120;2024-01-15T06:14:40;0.77;89.44
13713;DHT22;6928;50.546;7.120;2024-01-15T06:17:08;0.75;89.50
13713;DHT22;6928;50.546;7.120;2024-01-15T06:19:35;0.74;89.42
13713;DHT22;6928;50.546;7.120;2024-01-15T06:22:02;0.85;89.52
13713;DHT22;6928;50.546;7.120;2024-01-15T06:24:28;0.78;88.97
13713;DHT22;6928;50.546;7.120;2024-01-15T06:26:55;0.78;88.71
13713;DHT22;6928;50.546;7.120;2024-01-15T06:29:26;0.79;89.01
13713;DHT22;6928;50.546;7.120;2024-01-15T06:31:53;0.77;89.17
13713;DHT22;6928;50.546;7.120;2024-01-15T06:34:19;0.75;89.21
13713;DHT22;6928;50.546;7.120;2024-01-15T06:36:46;0.71;89.03
13713;DHT22;6928;50.546;7.120;2024-01-15T06:39:13;0.74;89.05
13713;DHT22;6928;50.546;7.120;2024-01-15T06:41:40;0.64;89.52
13713;DHT22;6928;50.546;7.120;2024-01-15T06:44:09;0.61;89.61
13713;DHT22;6928;50.546;7.120;2024-01-15T06:46:42;0.62;89.48
13713;DHT22;6928;50.546;7.120;2024-01-15T06:49:09;0.64;88.84
13713;DHT22;6928;50.546;7.120;2024-01-15T06:51:35;0.61;88.76
13713;DHT22;6928;50.546;7.120;2024-01-15T06:54:02;0.60;88.53
13713;DHT22;6928;50.546;7.120;2024-01-15T06:56:29;0.64;87.96
13713;DHT22;6928;50.546;7.120;2024-01-15T06:58:56;0.61;88.02
13713;DHT22;6928;50.546;7.120;2024-01-15T07:01:23;0.69;86.96
13713;DHT22;6928;50.546;7.120;2024-01-15T07:03:51;0.67;86.62
13713;DHT22;6928;50.546;7.120;2024-01-15T07:06:19;0.71;86.75
13713;DHT22;6928;50.546;7.120;2024-01-15T07:08:46;0.71;86.39
13713;DHT22;6928;50.546;7.120;2024-01-15T07:11:13;0.71;85.76
13713;DHT22;6928;50.546;7.120;2024-01-15T07:13:43;0.78;85.84
13713;DHT22;6928;50.546;7.120;2024-01-15T07:16:12;0.82;85.90
13713;DHT22;6928;50.546;7.120;2024-01-15T07:18:39;0.81;85.62
13713;DHT22;6928;50.546;7.120;2024-01-15T07:21:08;0.85;85.38
13713;DHT22;6928;50.546;7.120;2024-01-15T07:23:34;0.85;85.39
13713;DHT22;6928;50.546;7.120;2024-01-15T07:26:01;0.95;85.18
13713;DHT22;6928;50.546;7.120;2024-01-15T07:28:29;0.92;85.02
13713;DHT22;6928;50.546;7.120;2024-01-15T07:30:56;0.91;85.08
13713;DHT22;6928;50.546;7.120;2024-01-15T07:33:23;0.96;84.72
13713;DHT22;6928;50.546;7.120;2024-01-15T07:35:50;0.92;85.17
13713;DHT22;6928;50.546;7.120;2024-01-15T07:38:18;0.92;84.99
13713;DHT22;6928;50.546;7.120;2024-01-15T07:40:45;0.93;85.49
13713;DHT22;6928;50.546;7.120;2024-01-15T07:43:14;0.88;85.02
13713;DHT22;6928;50.546;7.120;2024-01-15T07:45:41;0.87;84.98
13713;DHT22;6928;50.546;7.120;2024-01-15T07:48:08;0.88;84.88
13713;DHT22;6928;50.546;7.120;2024-01-15T07:50:35;0.87;84.31
13713;DHT22;6928;50.546;7.120;2024-01-15T07:53:03;0.87;84.38
13713;DHT22;6928;50.546;7.120;2024-01-15T07:55:32;0.87;84.21
13713;DHT22;6928;50.546;7.120;2024-01-15T07:58:01;0.81;84.09
13713;DHT22;6928;50.546;7.120;2024-01-15T08:00:28;0.92;83.47
13713;DHT22;6928;50.546;7.120;2024-01-15T08:02:55;0.92;83.56
13713;DHT22;6928;50.546;7.120;2024-01-15T08:05:22;0.87;84.02
13713;DHT22;6928;50.546;7.120;2024-01-15T08:07:49;0.87;83.71
13713;DHT22;6928;50.546;7.120;2024-01-15T08:10:16;1.00;83.40
13713;DHT22;6928;50.546;7.120;2024-01-15T08:12:44;1.02;83.46
13713;DHT22;6928;50.546;7.120;2024-01-15T08:15:11;1.08;83.04
13713;DHT22;6928;50.546;7.120;2024-01-15T08:17:37;1.08;83.15
13713;DHT22;6928;50.546;7.120;2024-01-15T08:20:05;1.12;82.85
13713;DHT22;6928;50.546;7.120;2024-01-15T08:22:32;1.12;82.74
13713;DHT22;6928;50.546;7.120;2024-01-15T08:24:59;1.18;82.09
13713;DHT22;6928;50.546;7.120;2024-01-15T08:27:26;1.18;82.62
13713;DHT22;6928;50.546;7.120;2024-01-15T08:29:54;1.25;82.71
13713;DHT22;6928;50.546;7.120;2024-01-15T08:32:21;1.30;82.20
13713;DHT22;6928;50.546;7.120;2024-01-15T08:34:48;1.32;81.56
13713;DHT22;6928;50.546;7.120;2024-01-15T08:37:17;1.33;82.20
13713;DHT22;6928;50.546;7.120;2024-01-15T08:39:44;1.36;81.16
13713;DHT22;6928;50.546;7.120;2024-01-15T08:42:11;1.37;81.44
13713;DHT22;6928;50.546;7.120;2024-01-15T08:44:38;1.36;81.66
13713;DHT22;6928;50.546;7.120;2024-01-15T08:47:07;1.43;80.87
13713;DHT22;6928;50.546;7.120;2024-01-15T08:49:34;1.44;80.53
13713;DHT22;6928;50.546;7.120;2024-01-15T08:52:02;1.47;80.72
13713;DHT22;6928;50.546;7.120;2024-01-15T08:54:29;1.53;80.38
13713;DHT22;6928;50.546;7.120;2024-01-15T08:56:55;1.53;80.93
13713;DHT22;6928;50.546;7.120;2024-01-15T08:59:22;1.53;80.85
13713;DHT22;6928;50.546;7.120;2024-01-15T09:01:51;1.64;79.34
13713;DHT22;6928;50.546;7.120;2024-01-15T09:04:20;1.70;79.58
13713;DHT22;6928;50.546;7.120;2024-01-15T09:06:46;1.77;79.19
13713;DHT22;6928;50.546;7.120;2024-01-15T09:09:13;1.82;79.28
13713;DHT22;6928;50.546;7.120;2024-01-15T09:11:40;1.85;80.22
13713;DHT22;6928;50.546;7.120;2024-01-15T09:14:07;1.91;78.79
13713;DHT22;6928;50.546;7.120;2024-01-15T09:16:34;1.94;78.53
13713;DHT22;6928;50.546;7.120;2024-01-15T09:19:01;2.01;78.78
13713;DHT22;6928;50.546;7.120;2024-01-15T09:21:30;1.98;78.94
13713;DHT22;6928;50.546;7.120;2024-01-15T09:23:57;1.94;78.86
13713;DHT22;6928;50.546;7.120;2024-01-15T09:26:23;2.04;78.08
13713;DHT22;6928;50.546;7.120;2024-01-15T09:28:51;2.04;78.76
13713;DHT22;6928;50.546;7.120;2024-01-15T09:31:18;2.04;78.41
13713;DHT22;6928;50.546;7.120;2024-01-15T09:33:45;2.07;77.31
13713;DHT22;6928;50.546;7.120;2024-01-15T09:36:12;2.04;77.47
13713;DHT22;6928;50.546;7.120;2024-01-15T09:38:41;2.04;77.62
13713;DHT22;6928;50.546;7.120;2024-01-15T09:41:08;2.07;77.62
13713;DHT22;6928;50.546;7.120;2024-01-15T09:43:35;2.07;77.85
13713;DHT22;6928;50.546;7.120;2024-01-15T09:46:03;2.10;78.29
13713;DHT22;6928;50.546;7.120;2024-01-15T09:48:30;2.12;78.54
13713;DHT22;6928;50.546;7.120;2024-01-15T09:51:01;2.17;77.93
13713;DHT22;6928;50.546;7.120;2024-01-15T09:53:30;2.11;77.84
13713;DHT22;6928;50.546;7.120;2024-01-15T09:55:59;2.11;77.85
13713;DHT22;6928;50.546;7.120;2024-01-15T09:58:26;2.11;77.13
13713;DHT22;6928;50.546;7.120;2024-01-15T10:00:55;2.12;77.89
13713;DHT22;6928;50.546;7.120;2024-01-15T10:03:23;2.11;78.14
13713;DHT22;6928;50.546;7.120;2024-01-15T10:05:50;2.05;78.53
13713;DHT22;6928;50.546;7.120;2024-01-15T10:08:19;1.82;81.26
13713;DHT22;6928;50.546;7.120;2024-01-15T10:10:47;1.66;83.57
13713;DHT22;6928;50.546;7.120;2024-01-15T10:13:15;1.56;84.89
13713;DHT22;6928;50.546;7.120;2024-01-15T10:15:45;1.43;86.01
13713;DHT22;6928;50.546;7.120;2024-01-15T10:18:13;1.40;86.53
13713;DHT22;6928;50.546;7.120;2024-01-15T10:20:40;1.39;86.85
13713;DHT22;6928;50.546;7.120;2024-01-15T10:23:08;1.33;87.35
13713;DHT22;6928;50.546;7.120;2024-01-15T10:25:35;1.40;86.79
13713;DHT22;6928;50.546;7.120;2024-01-15T10:28:04;1.43;86.68
13713;DHT22;6928;50.546;7.120;2024-01-15T10:30:32;1.42;86.89
13713;DHT22;6928;50.546;7.120;2024-01-15T10:33:00;1.49;86.16
13713;DHT22;6928;50.546;7.120;2024-01-15T10:35:29;1.43;86.87
13713;DHT22;6928;50.546;7.120;2024-01-15T10:37:56;1.36;87.63
13713;DHT22;6928;50.546;7.120;2024-01-15T10:40:23;1.36;88.05
13713;DHT22;6928;50.546;7.120;2024-01-15T10:42:50;1.33;88.12
13713;DHT22;6928;50.546;7.120;2024-01-15T10:45:17;1.29;88.96
13713;DHT22;6928;50.546;7.120;2024-01-15T10:47:46;1.35;88.66
13713;DHT22;6928;50.546;7.120;2024-01-15T10:50:14;1.39;88.45
13713;DHT22;6928;50.546;7.120;2024-01-15T10:52:41;1.42;88.36
13713;DHT22;6928;50.546;7.120;2024-01-15T10:55:09;1.42;88.32
13713;DHT22;6928;50.546;7.120;2024-01-15T10:57:37;1.49;88.32
13713;DHT22;6928;50.546;7.120;2024-01-15T11:00:07;1.60;88.17
13713;DHT22;6928;50.546;7.120;2024-01-15T11:02:40;1.50;88.59
13713;DHT22;6928;50.546;7.120;2024-01-15T11:05:09;1.47;88.48
13713;DHT22;6928;50.546;7.120;2024-01-15T11:07:39;2.26;89.80
13713;DHT22;6928;50.546;7.120;2024-01-15T11:10:08;1.54;88.21
13713;DHT22;6928;50.546;7.120;2024-01-15T11:12:36;1.50;88.89
13713;DHT22;6928;50.546;7.120;2024-01-15T11:15:16;1.40;89.70
13713;DHT22;6928;50.546;7.120;2024-01-15T11:18:03;1.44;89.57
13713;DHT22;6928;50.546;7.120;2024-01-15T11:20:32;1.46;89.58
13713;DHT22;6928;50.546;7.120;2024-01-15T11:22:59;1.47;89.43
13713;DHT22;6928;50.546;7.120;2024-01-15T11:25:35;1.47;89.22
13713;DHT22;6928;50.546;7.120;2024-01-15T11:28:08;1.54;89.15
13713;DHT22;6928;50.546;7.120;2024-01-15T11:30:35;1.50;89.45
13713;DHT22;6928;50.546;7.120;2024-01-15T11:33:03;1.50;89.67
13713;DHT22;6928;50.546;7.120;2024-01-15T11:35:51;1.43;89.50
13713;DHT22;6928;50.546;7.120;2024-01-15T11:38:27;1.39;89.46
13713;DHT22;6928;50.546;7.120;2024-01-15T11:40:55;1.39;89.55
13713;DHT22;6928;50.546;7.120;2024-01-15T11:43:22;1.44;89.60
13713;DHT22;6928;50.546;7.120;2024-01-15T11:45:52;1.49;89.36
13713;DHT22;6928;50.546;7.120;2024-01-15T11:48:20;1.47;89.04
13713;DHT22;6928;50.546;7.120;2024-01-15T11:50:51;1.46;89.07
13713;DHT22;6928;50.546;7.120;2024-01-15T11:53:27;1.50;88.65
13713;DHT22;6928;50.546;7.120;2024-01-15T11:56:02;1.56;88.96
13713;DHT22;6928;50.546;7.120;2024-01-15T11:58:29;1.60;88.69
13713;DHT22;6928;50.546;7.120;2024-01-15T12:00:57;1.51;89.09
13713;DHT22;6928;50.546;7.120;2024-01-15T12:03:24;1.50;89.50
13713;DHT22;6928;50.546;7.120;2024-01-15T12:05:53;1.64;87.34
13713;DHT22;6928;50.546;7.120;2024-01-15T12:08:23;1.73;87.62
13713;DHT22;6928;50.546;7.120;2024-01-15T12:10:51;1.74;87.94
13713;DHT22;6928;50.546;7.120;2024-01-15T12:13:18;1.91;88.80
13713;DHT22;6928;50.546;7.120;2024-01-15T12:15:47;1.98;87.31
13713;DHT22;6928;50.546;7.120;2024-01-15T12:18:16;2.00;86.50
13713;DHT22;6928;50.546;7.120;2024-01-15T12:20:44;2.11;86.95
13713;DHT22;6928;50.546;7.120;2024-01-15T12:23:14;2.10;86.42
13713;DHT22;6928;50.546;7.120;2024-01-15T12:25:42;2.29;85.99
13713;DHT22;6928;50.546;7.120;2024-01-15T12:28:09;2.29;83.24
13713;DHT22;6928;50.546;7.120;2024-01-15T12:30:36;2.24;83.04
13713;DHT22;6928;50.546;7.120;2024-01-15T12:33:05;2.24;83.08
13713;DHT22;6928;50.546;7.120;2024-01-15T12:35:33;2.19;82.77
13713;DHT22;6928;50.546;7.120;2024-01-15T12:38:00;2.21;82.83
13713;DHT22;6928;50.546;7.120;2024-01-15T12:40:31;2.22;82.41
13713;DHT22;6928;50.546;7.120;2024-01-15T12:42:58;2.17;82.00
13713;DHT22;6928;50.546;7.120;2024-01-15T12:45:25;2.24;82.25
13713;DHT22;6928;50.546;7.120;2024-01-15T12:47:52;2.24;80.50
13713;DHT22;6928;50.546;7.120;2024-01-15T12:50:24;2.28;81.13
13713;DHT22;6928;50.546;7.120;2024-01-15T12:52:52;2.56;79.61
13713;DHT22;6928;50.546;7.120;2024-01-15T12:55:19;2.38;80.69
13713;DHT22;6928;50.546;7.120;2024-01-15T12:57:49;2.35;80.71
13713;DHT22;6928;50.546;7.120;2024-01-15T13:00:18;2.41;80.43
13713;DHT22;6928;50.546;7.120;2024-01-15T13:02:45;2.49;78.43
13713;DHT22;6928;50.546;7.120;2024-01-15T13:05:12;2.64;79.01
13713;DHT22;6928;50.546;7.120;2024-01-15T13:07:39;2.66;77.38
13713;DHT22;6928;50.546;7.120;2024-01-15T13:10:08;2.54;78.28
13713;DHT22;6928;50.546;7.120;2024-01-15T13:12:36;2.42;78.74
13713;DHT22;6928;50.546;7.120;2024-01-15T13:15:05;2.43;77.93
13713;DHT22;6928;50.546;7.120;2024-01-15T13:17:37;2.54;77.49
13713;DHT22;6928;50.546;7.120;2024-01-15T13:20:05;2.54;77.41
13713;DHT22;6928;50.546;7.120;2024-01-15T13:22:33;2.49;76.56
13713;DHT22;6928;50.546;7.120;2024-01-15T13:25:00;2.46;76.74
13713;DHT22;6928;50.546;7.120;2024-01-15T13:27:29;2.46;76.81
13713;DHT22;6928;50.546;7.120;2024-01-15T13:30:44;2.45;75.47
13713;DHT22;6928;50.546;7.120;2024-01-15T13:33:38;2.43;74.93
13713;DHT22;6928;50.546;7.120;2024-01-15T13:37:14;2.10;78.06
13713;DHT22;6928;50.546;7.120;2024-01-15T13:39:55;1.77;82.51
13713;DHT22;6928;50.546;7.120;2024-01-15T13:42:21;1.56;84.42
13713;DHT22;6928;50.546;7.120;2024-01-15T13:44:48;1.47;85.78
13713;DHT22;6928;50.546;7.120;2024-01-15T13:47:16;1.44;86.24
13713;DHT22;6928;50.546;7.120;2024-01-15T13:49:43;1.56;85.71
13713;DHT22;6928;50.546;7.120;2024-01-15T13:52:12;1.66;84.49
13713;DHT22;6928;50.546;7.120;2024-01-15T13:54:39;1.68;84.11
13713;DHT22;6928;50.546;7.120;2024-01-15T13:57:06;1.73;83.77
13713;DHT22;6928;50.546;7.120;2024-01-15T13:59:33;1.82;84.79
13713;DHT22;6928;50.546;7.120;2024-01-15T14:01:59;1.63;84.55
13713;DHT22;6928;50.546;7.120;2024-01-15T14:04:27;1.59;85.55
13713;DHT22;6928;50.546;7.120;2024-01-15T14:06:55;1.60;84.60
13713;DHT22;6928;50.546;7.120;2024-01-15T14:09:22;1.50;85.60
13713;DHT22;6928;50.546;7.120;2024-01-15T14:11:50;1.56;85.89
13713;DHT22;6928;50.546;7.120;2024-01-15T14:14:18;1.57;85.91
13713;DHT22;6928;50.546;7.120;2024-01-15T14:16:45;1.53;86.66
13713;DHT22;6928;50.546;7.120;2024-01-15T14:19:12;1.67;85.46
13713;DHT22;6928;50.546;7.120;2024-01-15T14:21:42;1.77;84.84
13713;DHT22;6928;50.546;7.120;2024-01-15T14:24:09;1.71;85.18
13713;DHT22;6928;50.546;7.120;2024-01-15T14:26:35;1.77;84.61
13713;DHT22;6928;50.546;7.120;2024-01-15T14:29:03;1.73;83.70
13713;DHT22;6928;50.546;7.120;2024-01-15T14:31:31;1.74;83.87
13713;DHT22;6928;50.546;7.120;2024-01-15T14:33:59;1.78;84.03
13713;DHT22;6928;50.546;7.120;2024-01-15T14:36:28;1.67;84.51
13713;DHT22;6928;50.546;7.120;2024-01-15T14:38:57;1.61;84.96
13713;DHT22;6928;50.546;7.120;2024-01-15T14:41:25;1.54;85.91
13713;DHT22;6928;50.546;7.120;2024-01-15T14:43:55;1.51;86.32
13713;DHT22;6928;50.546;7.120;2024-01-15T14:46:23;1.59;85.03
13713;DHT22;6928;50.546;7.120;2024-01-15T14:48:50;1.57;84.90
13713;DHT22;6928;50.546;7.120;2024-01-15T14:51:17;1.57;85.00
13713;DHT22;6928;50.546;7.120;2024-01-15T14:53:44;1.66;84.85
13713;DHT22;6928;50.546;7.120;2024-01-15T14:56:13;1.64;85.16
13713;DHT22;6928;50.546;7.120;2024-01-15T14:58:39;1.70;84.92
13713;DHT22;6928;50.546;7.120;2024-01-15T15:01:07;1.63;85.14
13713;DHT22;6928;50.546;7.120;2024-01-15T15:03:33;1.63;85.18
13713;DHT22;6928;50.546;7.120;2024-01-15T15:06:01;1.67;84.94
13713;DHT22;6928;50.546;7.120;2024-01-15T15:08:28;1.63;85.21
13713;DHT22;6928;50.546;7.120;2024-01-15T15:10:55;1.70;85.14
13713;DHT22;6928;50.546;7.120;2024-01-15T15:13:24;1.70;84.53
13713;DHT22;6928;50.546;7.120;2024-01-15T15:15:51;1.74;83.49
13713;DHT22;6928;50.546;7.120;2024-01-15T15:18:19;1.74;84.07
13713;DHT22;6928;50.546;7.120;2024-01-15T15:20:47;1.78;83.83
13713;DHT22;6928;50.546;7.120;2024-01-15T15:23:15;1.73;84.30
13713;DHT22;6928;50.546;7.120;2024-01-15T15:25:42;1.73;85.18
13713;DHT22;6928;50.546;7.120;2024-01-15T15:28:09;1.74;83.87
13713;DHT22;6928;50.546;7.120;2024-01-15T15:30:38;1.78;83.21
13713;DHT22;6928;50.546;7.120;2024-01-15T15:33:05;1.84;83.60
13713;DHT22;6928;50.546;7.120;2024-01-15T15:35:32;1.81;83.12
13713;DHT22;6928;50.546;7.120;2024-01-15T15:37:58;1.78;83.60
13713;DHT22;6928;50.546;7.120;2024-01-15T15:40:25;1.81;82.90
13713;DHT22;6928;50.546;7.120;2024-01-15T15:42:52;1.77;83.32
13713;DHT22;6928;50.546;7.120;2024-01-15T15:45:18;1.74;83.02
13713;DHT22;6928;50.546;7.120;2024-01-15T15:47:46;1.78;82.67
13713;DHT22;6928;50.546;7.120;2024-01-15T15:50:14;1.61;84.26
13713;DHT22;6928;50.546;7.120;2024-01-15T15:52:40;1.51;85.62
13713;DHT22;6928;50.546;7.120;2024-01-15T15:55:08;1.43;86.65
13713;DHT22;6928;50.546;7.120;2024-01-15T15:57:35;1.32;87.74
13713;DHT22;6928;50.546;7.120;2024-01-15T16:00:04;1.25;88.34
13713;DHT22;6928;50.546;7.120;2024-01-15T16:02:31;1.13;89.22
13713;DHT22;6928;50.546;7.120;2024-01-15T16:04:59;1.15;89.28
13713;DHT22;6928;50.546;7.120;2024-01-15T16:07:28;1.26;88.95
13713;DHT22;6928;50.546;7.120;2024-01-15T16:09:55;1.19;88.92